Alaska, Minnesota
Current Conditions -  °F | °C
As of 1:33 PM on Tuesday 21 Oct 2014 (Local Time) from KBJI Reporting Station
Clear Clear  
Wind Chill: 53°   Ceiling: Unl
Heat Index: 53°   Visibility: 10mi
Dew Point: 39°   Wind: 20mph
Humidity: 59%   Direction: 140°SE
Pressure: 30.07"   Gusts: 24mph
Location:  47.7369°N, 94.9947°W
Report Text: KBJI 211833Z AUTO 14017G21KT 10SM CLR 12/04 A3007 RMK AO2 T01180041
Loading
Personal Weather Stations






























Interactive Weather Map New forecast layout! Learn more

10-Day Weather Forecast

Advertisements
Track Severe Weather on mobile